sensor_id;sensor_type;location;lat;lon;timestamp;temperature;humidity
9083;DHT22;4577;48.704;9.000;2024-03-23T00:54:36;12.60;4.50
9083;DHT22;4577;48.704;9.000;2024-03-23T00:57:01;11.50;3.50
9083;DHT22;4577;48.704;9.000;2024-03-23T00:59:27;11.70;3.70
9083;DHT22;4577;48.704;9.000;2024-03-23T01:01:54;11.60;3.80
9083;DHT22;4577;48.704;9.000;2024-03-23T01:04:20;11.60;4.50
9083;DHT22;4577;48.704;9.000;2024-03-23T01:06:45;11.50;3.90
9083;DHT22;4577;48.704;9.000;2024-03-23T01:09:11;11.50;3.60
9083;DHT22;4577;48.704;9.000;2024-03-23T01:11:37;11.50;3.60
9083;DHT22;4577;48.704;9.000;2024-03-23T01:14:03;11.60;3.80
9083;DHT22;4577;48.704;9.000;2024-03-23T01:16:28;11.70;3.60
9083;DHT22;4577;48.704;9.000;2024-03-23T01:18:54;11.80;3.90
9083;DHT22;4577;48.704;9.000;2024-03-23T01:21:20;11.90;4.40
9083;DHT22;4577;48.704;9.000;2024-03-23T01:23:45;11.80;3.90
9083;DHT22;4577;48.704;9.000;2024-03-23T01:26:11;11.70;3.70
9083;DHT22;4577;48.704;9.000;2024-03-23T01:28:37;12.00;4.00
9083;DHT22;4577;48.704;9.000;2024-03-23T01:31:03;12.10;4.00
9083;DHT22;4577;48.704;9.000;2024-03-23T01:33:28;12.10;3.70
9083;DHT22;4577;48.704;9.000;2024-03-23T01:35:54;12.10;3.90
9083;DHT22;4577;48.704;9.000;2024-03-23T01:38:20;12.20;4.10
9083;DHT22;4577;48.704;9.000;2024-03-23T01:40:45;12.20;4.60
9083;DHT22;4577;48.704;9.000;2024-03-23T01:43:11;12.30;4.90
9083;DHT22;4577;48.704;9.000;2024-03-23T01:45:38;12.20;4.10
9083;DHT22;4577;48.704;9.000;2024-03-23T01:48:04;12.20;4.10
9083;DHT22;4577;48.704;9.000;2024-03-23T01:50:30;12.10;4.00
9083;DHT22;4577;48.704;9.000;2024-03-23T01:52:59;12.10;4.10
9083;DHT22;4577;48.704;9.000;2024-03-23T01:55:25;12.10;4.10
9083;DHT22;4577;48.704;9.000;2024-03-23T01:57:52;12.10;18.20
9083;DHT22;4577;48.704;9.000;2024-03-23T02:00:18;12.20;4.10
9083;DHT22;4577;48.704;9.000;2024-03-23T02:02:47;11.90;1.00
9083;DHT22;4577;48.704;9.000;2024-03-23T02:05:13;12.00;4.10
9083;DHT22;4577;48.704;9.000;2024-03-23T02:07:40;12.10;3.90
9083;DHT22;4577;48.704;9.000;2024-03-23T02:10:07;11.90;3.90
9083;DHT22;4577;48.704;9.000;2024-03-23T02:12:33;11.90;4.10
9083;DHT22;4577;48.704;9.000;2024-03-23T02:14:58;11.90;3.80
9083;DHT22;4577;48.704;9.000;2024-03-23T02:17:24;12.00;4.60
9083;DHT22;4577;48.704;9.000;2024-03-23T02:19:50;11.90;1.00
9083;DHT22;4577;48.704;9.000;2024-03-23T02:22:16;11.90;4.20
9083;DHT22;4577;48.704;9.000;2024-03-23T02:24:42;12.10;3.90
9083;DHT22;4577;48.704;9.000;2024-03-23T02:27:08;12.10;3.90
9083;DHT22;4577;48.704;9.000;2024-03-23T02:29:34;12.20;4.90
9083;DHT22;4577;48.704;9.000;2024-03-23T02:31:59;12.20;4.20
9083;DHT22;4577;48.704;9.000;2024-03-23T02:34:25;12.10;4.20
9083;DHT22;4577;48.704;9.000;2024-03-23T02:36:51;12.20;4.10
9083;DHT22;4577;48.704;9.000;2024-03-23T02:39:16;12.30;4.40
9083;DHT22;4577;48.704;9.000;2024-03-23T02:41:42;12.30;4.60
9083;DHT22;4577;48.704;9.000;2024-03-23T02:44:08;12.30;4.30
9083;DHT22;4577;48.704;9.000;2024-03-23T02:46:37;12.30;4.20
9083;DHT22;4577;48.704;9.000;2024-03-23T02:49:03;12.20;4.20
9083;DHT22;4577;48.704;9.000;2024-03-23T02:51:30;12.30;4.20
9083;DHT22;4577;48.704;9.000;2024-03-23T02:53:55;13.00;5.40
9083;DHT22;4577;48.704;9.000;2024-03-23T02:56:21;12.20;4.10
9083;DHT22;4577;48.704;9.000;2024-03-23T02:58:47;12.10;1.00
9083;DHT22;4577;48.704;9.000;2024-03-23T03:01:13;12.20;4.20
9083;DHT22;4577;48.704;9.000;2024-03-23T03:03:38;12.10;4.10
9083;DHT22;4577;48.704;9.000;2024-03-23T03:06:04;12.10;4.00
9083;DHT22;4577;48.704;9.000;2024-03-23T03:08:30;12.10;4.20
9083;DHT22;4577;48.704;9.000;2024-03-23T03:10:56;12.10;1.00
9083;DHT22;4577;48.704;9.000;2024-03-23T03:13:21;12.00;4.00
9083;DHT22;4577;48.704;9.000;2024-03-23T03:15:47;12.10;1.00
9083;DHT22;4577;48.704;9.000;2024-03-23T03:18:13;12.10;4.20
9083;DHT22;4577;48.704;9.000;2024-03-23T03:20:39;12.10;4.00
9083;DHT22;4577;48.704;9.000;2024-03-23T03:23:05;12.30;4.30
9083;DHT22;4577;48.704;9.000;2024-03-23T03:25:31;12.10;4.20
9083;DHT22;4577;48.704;9.000;2024-03-23T03:27:57;12.10;1.00
9083;DHT22;4577;48.704;9.000;2024-03-23T03:30:23;12.00;4.10
9083;DHT22;4577;48.704;9.000;2024-03-23T03:32:49;12.10;4.20
9083;DHT22;4577;48.704;9.000;2024-03-23T03:35:15;12.10;4.10
9083;DHT22;4577;48.704;9.000;2024-03-23T03:37:41;12.10;4.10
9083;DHT22;4577;48.704;9.000;2024-03-23T03:40:07;12.30;4.10
9083;DHT22;4577;48.704;9.000;2024-03-23T03:42:34;12.30;4.20
9083;DHT22;4577;48.704;9.000;2024-03-23T03:45:00;12.20;4.10
9083;DHT22;4577;48.704;9.000;2024-03-23T03:47:26;12.10;4.00
9083;DHT22;4577;48.704;9.000;2024-03-23T03:49:51;14.20;5.30
9083;DHT22;4577;48.704;9.000;2024-03-23T03:52:17;12.10;17.60
9083;DHT22;4577;48.704;9.000;2024-03-23T03:54:42;11.90;4.10
9083;DHT22;4577;48.704;9.000;2024-03-23T03:57:08;11.80;3.90
9083;DHT22;4577;48.704;9.000;2024-03-23T03:59:34;11.90;3.90
9083;DHT22;4577;48.704;9.000;2024-03-23T04:01:59;11.80;3.90
9083;DHT22;4577;48.704;9.000;2024-03-23T04:04:25;11.80;4.70
9083;DHT22;4577;48.704;9.000;2024-03-23T04:07:01;12.00;4.10
9083;DHT22;4577;48.704;9.000;2024-03-23T04:09:27;12.00;4.00
9083;DHT22;4577;48.704;9.000;2024-03-23T04:11:53;11.90;4.00
9083;DHT22;4577;48.704;9.000;2024-03-23T04:14:19;11.80;3.90
9083;DHT22;4577;48.704;9.000;2024-03-23T04:16:44;11.80;4.00
9083;DHT22;4577;48.704;9.000;2024-03-23T04:19:10;11.80;4.90
9083;DHT22;4577;48.704;9.000;2024-03-23T04:21:37;11.80;3.90
9083;DHT22;4577;48.704;9.000;2024-03-23T04:24:04;11.90;4.00
9083;DHT22;4577;48.704;9.000;2024-03-23T04:26:29;11.90;3.90
9083;DHT22;4577;48.704;9.000;2024-03-23T04:28:55;12.10;4.10
9083;DHT22;4577;48.704;9.000;2024-03-23T04:31:21;12.20;4.20
9083;DHT22;4577;48.704;9.000;2024-03-23T04:33:47;12.20;5.00
9083;DHT22;4577;48.704;9.000;2024-03-23T04:36:12;11.70;3.70
9083;DHT22;4577;48.704;9.000;2024-03-23T04:38:38;10.70;1.00
9083;DHT22;4577;48.704;9.000;2024-03-23T04:41:04;10.90;3.70
9083;DHT22;4577;48.704;9.000;2024-03-23T04:43:30;11.40;3.60
9083;DHT22;4577;48.704;9.000;2024-03-23T04:45:55;11.30;3.50
9083;DHT22;4577;48.704;9.000;2024-03-23T04:48:22;11.20;1.00
9083;DHT22;4577;48.704;9.000;2024-03-23T04:50:48;11.10;1.00
9083;DHT22;4577;48.704;9.000;2024-03-23T04:53:15;11.10;3.80
9083;DHT22;4577;48.704;9.000;2024-03-23T04:55:41;11.30;1.00
9083;DHT22;4577;48.704;9.000;2024-03-23T04:58:07;11.00;3.70
9083;DHT22;4577;48.704;9.000;2024-03-23T05:00:33;10.80;3.30
9083;DHT22;4577;48.704;9.000;2024-03-23T05:02:59;10.80;4.10
9083;DHT22;4577;48.704;9.000;2024-03-23T05:05:25;10.60;1.00
9083;DHT22;4577;48.704;9.000;2024-03-23T05:07:50;10.80;1.00
9083;DHT22;4577;48.704;9.000;2024-03-23T05:10:16;10.60;1.00
9083;DHT22;4577;48.704;9.000;2024-03-23T05:15:08;10.70;1.00
9083;DHT22;4577;48.704;9.000;2024-03-23T05:17:34;10.40;3.60
9083;DHT22;4577;48.704;9.000;2024-03-23T05:20:00;10.60;8.50
9083;DHT22;4577;48.704;9.000;2024-03-23T05:22:26;10.60;2.70
9083;DHT22;4577;48.704;9.000;2024-03-23T05:24:53;10.20;15.00
9083;DHT22;4577;48.704;9.000;2024-03-23T05:27:18;10.50;2.80
9083;DHT22;4577;48.704;9.000;2024-03-23T05:29:44;10.40;1.00
9083;DHT22;4577;48.704;9.000;2024-03-23T05:32:10;10.70;19.80
9083;DHT22;4577;48.704;9.000;2024-03-23T05:34:36;10.50;1.00
9083;DHT22;4577;48.704;9.000;2024-03-23T05:39:27;10.50;11.60
9083;DHT22;4577;48.704;9.000;2024-03-23T05:41:53;10.10;16.10
9083;DHT22;4577;48.704;9.000;2024-03-23T05:44:19;10.60;19.80
9083;DHT22;4577;48.704;9.000;2024-03-23T05:46:45;10.30;3.20
9083;DHT22;4577;48.704;9.000;2024-03-23T05:49:15;10.20;3.10
9083;DHT22;4577;48.704;9.000;2024-03-23T05:51:41;9.90;1.00
9083;DHT22;4577;48.704;9.000;2024-03-23T05:54:06;9.80;1.00
9083;DHT22;4577;48.704;9.000;2024-03-23T05:56:32;9.80;35.60
9083;DHT22;4577;48.704;9.000;2024-03-23T06:01:24;9.30;34.40
9083;DHT22;4577;48.704;9.000;2024-03-23T06:03:49;9.70;65.60
9083;DHT22;4577;48.704;9.000;2024-03-23T06:06:15;10.10;17.40
9083;DHT22;4577;48.704;9.000;2024-03-23T06:08:41;9.80;34.60
9083;DHT22;4577;48.704;9.000;2024-03-23T06:11:07;9.60;4.40
9083;DHT22;4577;48.704;9.000;2024-03-23T06:13:33;9.70;3.50
9083;DHT22;4577;48.704;9.000;2024-03-23T06:16:01;9.70;12.40
9083;DHT22;4577;48.704;9.000;2024-03-23T06:18:27;9.80;3.60
9083;DHT22;4577;48.704;9.000;2024-03-23T06:20:53;9.50;1.00
9083;DHT22;4577;48.704;9.000;2024-03-23T06:23:19;9.60;3.90
9083;DHT22;4577;48.704;9.000;2024-03-23T06:25:46;9.70;1.00
9083;DHT22;4577;48.704;9.000;2024-03-23T06:28:12;9.50;18.10
9083;DHT22;4577;48.704;9.000;2024-03-23T06:30:38;9.30;1.00
9083;DHT22;4577;48.704;9.000;2024-03-23T06:33:03;9.20;1.00
9083;DHT22;4577;48.704;9.000;2024-03-23T06:35:31;9.30;13.40
9083;DHT22;4577;48.704;9.000;2024-03-23T06:37:56;9.40;24.40
9083;DHT22;4577;48.704;9.000;2024-03-23T06:40:23;9.20;1.00
9083;DHT22;4577;48.704;9.000;2024-03-23T06:42:49;9.20;29.30
9083;DHT22;4577;48.704;9.000;2024-03-23T06:47:41;9.30;23.00
9083;DHT22;4577;48.704;9.000;2024-03-23T06:50:07;9.20;1.00
9083;DHT22;4577;48.704;9.000;2024-03-23T06:52:32;9.10;3.40
9083;DHT22;4577;48.704;9.000;2024-03-23T06:54:58;8.80;1.00
9083;DHT22;4577;48.704;9.000;2024-03-23T06:57:24;8.70;7.90
9083;DHT22;4577;48.704;9.000;2024-03-23T07:02:16;9.00;1.00
9083;DHT22;4577;48.704;9.000;2024-03-23T07:07:08;9.40;1.00
9083;DHT22;4577;48.704;9.000;2024-03-23T07:09:34;9.10;1.00
9083;DHT22;4577;48.704;9.000;2024-03-23T07:11:59;8.70;1.00
9083;DHT22;4577;48.704;9.000;2024-03-23T07:14:25;9.10;2.70
9083;DHT22;4577;48.704;9.000;2024-03-23T07:16:51;8.70;1.00
9083;DHT22;4577;48.704;9.000;2024-03-23T07:19:17;8.80;1.00
9083;DHT22;4577;48.704;9.000;2024-03-23T07:21:46;9.20;30.50
9083;DHT22;4577;48.704;9.000;2024-03-23T07:24:13;8.90;38.60
9083;DHT22;4577;48.704;9.000;2024-03-23T07:26:38;8.80;1.00
9083;DHT22;4577;48.704;9.000;2024-03-23T07:29:05;8.50;24.50
9083;DHT22;4577;48.704;9.000;2024-03-23T07:31:30;8.70;28.10
9083;DHT22;4577;48.704;9.000;2024-03-23T07:33:56;8.80;1.00
9083;DHT22;4577;48.704;9.000;2024-03-23T07:36:22;9.20;1.00
9083;DHT22;4577;48.704;9.000;2024-03-23T07:38:47;9.20;38.80
9083;DHT22;4577;48.704;9.000;2024-03-23T07:41:18;8.40;37.90
9083;DHT22;4577;48.704;9.000;2024-03-23T07:43:44;8.60;14.00
9083;DHT22;4577;48.704;9.000;2024-03-23T07:46:10;8.90;1.00
9083;DHT22;4577;48.704;9.000;2024-03-23T07:48:37;8.50;1.00
9083;DHT22;4577;48.704;9.000;2024-03-23T07:51:08;8.90;1.00
9083;DHT22;4577;48.704;9.000;2024-03-23T07:53:34;8.30;1.00
9083;DHT22;4577;48.704;9.000;2024-03-23T07:58:29;8.40;1.00
9083;DHT22;4577;48.704;9.000;2024-03-23T08:00:56;8.30;1.00
9083;DHT22;4577;48.704;9.000;2024-03-23T08:03:22;8.50;1.00
9083;DHT22;4577;48.704;9.000;2024-03-23T08:05:48;8.40;1.00
9083;DHT22;4577;48.704;9.000;2024-03-23T08:08:14;8.50;1.00
9083;DHT22;4577;48.704;9.000;2024-03-23T08:10:50;8.70;1.00
9083;DHT22;4577;48.704;9.000;2024-03-23T08:13:16;8.40;1.00
9083;DHT22;4577;48.704;9.000;2024-03-23T08:15:42;8.30;22.90
9083;DHT22;4577;48.704;9.000;2024-03-23T08:18:07;8.50;36.40
9083;DHT22;4577;48.704;9.000;2024-03-23T08:22:59;8.50;1.00
9083;DHT22;4577;48.704;9.000;2024-03-23T08:25:25;8.20;37.50
9083;DHT22;4577;48.704;9.000;2024-03-23T08:30:17;8.30;1.00
9083;DHT22;4577;48.704;9.000;2024-03-23T08:37:36;8.70;39.20
9083;DHT22;4577;48.704;9.000;2024-03-23T08:40:02;8.60;1.00
9083;DHT22;4577;48.704;9.000;2024-03-23T08:42:30;8.80;1.00
9083;DHT22;4577;48.704;9.000;2024-03-23T08:44:55;8.80;2.60
9083;DHT22;4577;48.704;9.000;2024-03-23T08:49:47;8.50;5.20
9083;DHT22;4577;48.704;9.000;2024-03-23T08:57:05;8.90;1.00
9083;DHT22;4577;48.704;9.000;2024-03-23T08:59:32;8.70;4.10
9083;DHT22;4577;48.704;9.000;2024-03-23T09:01:58;8.60;8.30
9083;DHT22;4577;48.704;9.000;2024-03-23T09:04:23;8.40;1.00
9083;DHT22;4577;48.704;9.000;2024-03-23T09:06:49;8.30;4.80
9083;DHT22;4577;48.704;9.000;2024-03-23T09:09:15;9.10;1.00
9083;DHT22;4577;48.704;9.000;2024-03-23T09:23:52;8.40;1.00
9083;DHT22;4577;48.704;9.000;2024-03-23T09:28:44;8.50;1.00
9083;DHT22;4577;48.704;9.000;2024-03-23T09:33:39;8.40;1.00
9083;DHT22;4577;48.704;9.000;2024-03-23T09:36:06;8.40;1.00
9083;DHT22;4577;48.704;9.000;2024-03-23T09:38:33;8.60;1.00
9083;DHT22;4577;48.704;9.000;2024-03-23T09:40:59;8.50;4.50
9083;DHT22;4577;48.704;9.000;2024-03-23T09:43:25;8.60;1.00
9083;DHT22;4577;48.704;9.000;2024-03-23T09:48:17;8.70;1.00
9083;DHT22;4577;48.704;9.000;2024-03-23T09:50:44;8.90;1.00
9083;DHT22;4577;48.704;9.000;2024-03-23T09:53:12;8.90;1.00
9083;DHT22;4577;48.704;9.000;2024-03-23T09:55:40;8.40;1.00
9083;DHT22;4577;48.704;9.000;2024-03-23T09:58:06;8.70;1.00
9083;DHT22;4577;48.704;9.000;2024-03-23T10:00:32;8.60;1.00
9083;DHT22;4577;48.704;9.000;2024-03-23T10:02:59;8.60;1.10
9083;DHT22;4577;48.704;9.000;2024-03-23T10:05:27;8.60;1.00
9083;DHT22;4577;48.704;9.000;2024-03-23T10:12:48;8.90;1.00
9083;DHT22;4577;48.704;9.000;2024-03-23T10:15:24;9.00;1.00
9083;DHT22;4577;48.704;9.000;2024-03-23T10:17:50;8.90;1.00
9083;DHT22;4577;48.704;9.000;2024-03-23T10:20:20;9.10;1.00
9083;DHT22;4577;48.704;9.000;2024-03-23T10:22:50;8.60;1.00
9083;DHT22;4577;48.704;9.000;2024-03-23T10:25:17;8.70;1.00
9083;DHT22;4577;48.704;9.000;2024-03-23T10:27:43;8.60;1.00
9083;DHT22;4577;48.704;9.000;2024-03-23T10:30:10;8.50;1.00
9083;DHT22;4577;48.704;9.000;2024-03-23T10:32:37;8.50;4.20
9083;DHT22;4577;48.704;9.000;2024-03-23T10:35:20;8.60;1.00
9083;DHT22;4577;48.704;9.000;2024-03-23T10:42:45;7.80;1.20
9083;DHT22;4577;48.704;9.000;2024-03-23T10:45:10;8.20;1.00
9083;DHT22;4577;48.704;9.000;2024-03-23T10:47:37;7.30;1.30
9083;DHT22;4577;48.704;9.000;2024-03-23T10:50:06;5.70;99.90
9083;DHT22;4577;48.704;9.000;2024-03-23T10:52:36;5.30;25.10
9083;DHT22;4577;48.704;9.000;2024-03-23T10:55:05;5.20;75.20
9083;DHT22;4577;48.704;9.000;2024-03-23T10:57:41;5.10;10.90
9083;DHT22;4577;48.704;9.000;2024-03-23T11:00:09;5.30;1.00
9083;DHT22;4577;48.704;9.000;2024-03-23T11:05:02;5.40;99.90
9083;DHT22;4577;48.704;9.000;2024-03-23T11:07:51;6.30;35.70
9083;DHT22;4577;48.704;9.000;2024-03-23T11:10:27;6.10;57.70
9083;DHT22;4577;48.704;9.000;2024-03-23T11:15:20;5.80;99.90
9083;DHT22;4577;48.704;9.000;2024-03-23T11:18:03;6.10;99.90
9083;DHT22;4577;48.704;9.000;2024-03-23T11:20:33;6.50;99.90
9083;DHT22;4577;48.704;9.000;2024-03-23T11:22:59;6.20;99.90
9083;DHT22;4577;48.704;9.000;2024-03-23T11:25:26;6.50;77.20
9083;DHT22;4577;48.704;9.000;2024-03-23T11:27:56;6.60;99.90
9083;DHT22;4577;48.704;9.000;2024-03-23T11:30:24;6.90;27.20
9083;DHT22;4577;48.704;9.000;2024-03-23T11:32:54;6.70;10.60
9083;DHT22;4577;48.704;9.000;2024-03-23T11:35:31;7.20;1.00
9083;DHT22;4577;48.704;9.000;2024-03-23T11:38:14;7.20;1.00
9083;DHT22;4577;48.704;9.000;2024-03-23T11:40:50;7.40;1.00
9083;DHT22;4577;48.704;9.000;2024-03-23T11:43:17;7.80;25.90
9083;DHT22;4577;48.704;9.000;2024-03-23T11:45:46;7.90;9.20
9083;DHT22;4577;48.704;9.000;2024-03-23T11:48:19;7.90;1.00
9083;DHT22;4577;48.704;9.000;2024-03-23T11:50:47;7.50;1.00
9083;DHT22;4577;48.704;9.000;2024-03-23T11:53:15;7.80;35.50
9083;DHT22;4577;48.704;9.000;2024-03-23T11:55:58;7.90;1.00
9083;DHT22;4577;48.704;9.000;2024-03-23T11:58:25;8.30;15.50
9083;DHT22;4577;48.704;9.000;2024-03-23T12:00:55;8.20;1.00
9083;DHT22;4577;48.704;9.000;2024-03-23T12:05:52;8.60;1.00
9083;DHT22;4577;48.704;9.000;2024-03-23T12:10:49;7.80;1.00
9083;DHT22;4577;48.704;9.000;2024-03-23T12:13:22;8.00;1.00
9083;DHT22;4577;48.704;9.000;2024-03-23T12:15:50;7.90;9.90
9083;DHT22;4577;48.704;9.000;2024-03-23T12:18:16;7.80;21.60
9083;DHT22;4577;48.704;9.000;2024-03-23T12:20:42;8.00;1.00
9083;DHT22;4577;48.704;9.000;2024-03-23T12:23:12;7.90;20.80
9083;DHT22;4577;48.704;9.000;2024-03-23T12:25:39;8.90;1.00
9083;DHT22;4577;48.704;9.000;2024-03-23T12:28:06;8.10;1.00
9083;DHT22;4577;48.704;9.000;2024-03-23T12:30:36;8.30;1.00
9083;DHT22;4577;48.704;9.000;2024-03-23T12:35:30;8.20;1.00
9083;DHT22;4577;48.704;9.000;2024-03-23T12:37:56;8.30;1.00
9083;DHT22;4577;48.704;9.000;2024-03-23T12:42:47;8.30;17.20
9083;DHT22;4577;48.704;9.000;2024-03-23T12:45:13;8.60;1.00
9083;DHT22;4577;48.704;9.000;2024-03-23T12:47:39;7.90;1.00
9083;DHT22;4577;48.704;9.000;2024-03-23T12:50:05;8.80;1.00
9083;DHT22;4577;48.704;9.000;2024-03-23T12:52:32;8.40;1.00
9083;DHT22;4577;48.704;9.000;2024-03-23T12:57:24;8.70;4.30
9083;DHT22;4577;48.704;9.000;2024-03-23T12:59:53;8.80;1.00
9083;DHT22;4577;48.704;9.000;2024-03-23T13:02:22;8.60;1.00
9083;DHT22;4577;48.704;9.000;2024-03-23T13:04:52;8.40;15.60
9083;DHT22;4577;48.704;9.000;2024-03-23T13:07:18;8.60;1.00
9083;DHT22;4577;48.704;9.000;2024-03-23T13:09:44;8.90;19.20
9083;DHT22;4577;48.704;9.000;2024-03-23T13:12:10;8.80;1.00
9083;DHT22;4577;48.704;9.000;2024-03-23T13:17:03;8.30;16.60
9083;DHT22;4577;48.704;9.000;2024-03-23T13:22:00;7.70;1.00
9083;DHT22;4577;48.704;9.000;2024-03-23T13:24:27;7.80;1.00
9083;DHT22;4577;48.704;9.000;2024-03-23T13:26:54;7.50;11.80
9083;DHT22;4577;48.704;9.000;2024-03-23T13:29:20;7.90;1.00
9083;DHT22;4577;48.704;9.000;2024-03-23T13:34:13;7.90;1.00
9083;DHT22;4577;48.704;9.000;2024-03-23T13:36:41;8.20;1.00
9083;DHT22;4577;48.704;9.000;2024-03-23T13:41:43;8.00;2.20
9083;DHT22;4577;48.704;9.000;2024-03-23T13:44:13;8.30;5.50
9083;DHT22;4577;48.704;9.000;2024-03-23T13:46:40;8.80;10.10
9083;DHT22;4577;48.704;9.000;2024-03-23T13:49:45;8.40;1.00
9083;DHT22;4577;48.704;9.000;2024-03-23T13:52:06;8.50;5.40
9083;DHT22;4577;48.704;9.000;2024-03-23T13:56:58;8.70;1.00
9083;DHT22;4577;48.704;9.000;2024-03-23T13:59:24;8.30;1.00
9083;DHT22;4577;48.704;9.000;2024-03-23T14:04:16;7.30;99.90
9083;DHT22;4577;48.704;9.000;2024-03-23T14:06:45;6.90;4.90
9083;DHT22;4577;48.704;9.000;2024-03-23T14:09:12;7.30;56.30
9083;DHT22;4577;48.704;9.000;2024-03-23T14:11:38;7.40;35.80
9083;DHT22;4577;48.704;9.000;2024-03-23T14:14:04;7.60;28.50
9083;DHT22;4577;48.704;9.000;2024-03-23T14:16:30;7.90;1.00
9083;DHT22;4577;48.704;9.000;2024-03-23T14:18:56;7.80;37.20
9083;DHT22;4577;48.704;9.000;2024-03-23T14:28:40;8.00;1.00
9083;DHT22;4577;48.704;9.000;2024-03-23T14:33:39;8.40;12.70
9083;DHT22;4577;48.704;9.000;2024-03-23T14:36:11;8.20;3.80
9083;DHT22;4577;48.704;9.000;2024-03-23T14:41:03;8.10;1.00
9083;DHT22;4577;48.704;9.000;2024-03-23T14:43:30;8.10;6.40
9083;DHT22;4577;48.704;9.000;2024-03-23T14:46:15;8.00;1.00
9083;DHT22;4577;48.704;9.000;2024-03-23T14:48:43;7.90;1.00
9083;DHT22;4577;48.704;9.000;2024-03-23T14:51:10;7.60;1.00
9083;DHT22;4577;48.704;9.000;2024-03-23T14:53:40;7.70;17.50
9083;DHT22;4577;48.704;9.000;2024-03-23T14:56:09;7.40;1.00
9083;DHT22;4577;48.704;9.000;2024-03-23T14:58:38;6.40;92.00
9083;DHT22;4577;48.704;9.000;2024-03-23T15:01:05;5.60;99.40
9083;DHT22;4577;48.704;9.000;2024-03-23T15:06:00;5.70;86.20
9083;DHT22;4577;48.704;9.000;2024-03-23T15:08:27;6.00;1.00
9083;DHT22;4577;48.704;9.000;2024-03-23T15:10:58;6.30;1.00
9083;DHT22;4577;48.704;9.000;2024-03-23T15:15:50;6.40;72.00
9083;DHT22;4577;48.704;9.000;2024-03-23T15:23:29;6.70;1.00
9083;DHT22;4577;48.704;9.000;2024-03-23T15:25:59;7.20;1.00
9083;DHT22;4577;48.704;9.000;2024-03-23T15:28:25;7.30;1.00
9083;DHT22;4577;48.704;9.000;2024-03-23T15:33:33;7.30;5.40
9083;DHT22;4577;48.704;9.000;2024-03-23T15:36:03;7.10;1.00
9083;DHT22;4577;48.704;9.000;2024-03-23T15:38:29;7.00;20.50
9083;DHT22;4577;48.704;9.000;2024-03-23T15:40:56;7.10;26.00
9083;DHT22;4577;48.704;9.000;2024-03-23T15:45:58;7.20;10.60
9083;DHT22;4577;48.704;9.000;2024-03-23T15:48:25;6.70;9.70
9083;DHT22;4577;48.704;9.000;2024-03-23T15:50:54;7.40;13.40
9083;DHT22;4577;48.704;9.000;2024-03-23T15:53:20;7.40;1.00
9083;DHT22;4577;48.704;9.000;2024-03-23T15:56:00;7.00;1.00
9083;DHT22;4577;48.704;9.000;2024-03-23T15:58:26;9.20;1.00
9083;DHT22;4577;48.704;9.000;2024-03-23T16:01:01;7.10;1.00
9083;DHT22;4577;48.704;9.000;2024-03-23T16:03:27;7.00;14.30
9083;DHT22;4577;48.704;9.000;2024-03-23T16:06:04;6.90;5.80
9083;DHT22;4577;48.704;9.000;2024-03-23T16:08:30;7.00;20.00
9083;DHT22;4577;48.704;9.000;2024-03-23T16:11:06;6.70;13.40
9083;DHT22;4577;48.704;9.000;2024-03-23T16:13:35;7.30;8.90
9083;DHT22;4577;48.704;9.000;2024-03-23T16:16:02;7.50;1.00
9083;DHT22;4577;48.704;9.000;2024-03-23T16:18:36;7.80;1.00
9083;DHT22;4577;48.704;9.000;2024-03-23T16:23:32;7.20;1.00
9083;DHT22;4577;48.704;9.000;2024-03-23T16:28:29;7.20;1.00
9083;DHT22;4577;48.704;9.000;2024-03-23T16:35:55;6.90;15.40
9083;DHT22;4577;48.704;9.000;2024-03-23T16:40:57;7.00;1.00
9083;DHT22;4577;48.704;9.000;2024-03-23T16:43:23;7.40;33.30
9083;DHT22;4577;48.704;9.000;2024-03-23T16:46:09;6.80;1.00
9083;DHT22;4577;48.704;9.000;2024-03-23T16:48:39;7.10;1.00
9083;DHT22;4577;48.704;9.000;2024-03-23T16:51:05;7.40;1.00
9083;DHT22;4577;48.704;9.000;2024-03-23T16:53:35;7.10;1.00
9083;DHT22;4577;48.704;9.000;2024-03-23T17:00:55;7.50;1.00
9083;DHT22;4577;48.704;9.000;2024-03-23T17:03:24;7.20;1.00
9083;DHT22;4577;48.704;9.000;2024-03-23T17:08:16;7.00;9.00
9083;DHT22;4577;48.704;9.000;2024-03-23T17:13:08;6.70;16.40
9083;DHT22;4577;48.704;9.000;2024-03-23T17:18:01;6.70;1.00
9083;DHT22;4577;48.704;9.000;2024-03-23T17:20:26;7.10;18.70
9083;DHT22;4577;48.704;9.000;2024-03-23T17:22:55;7.10;1.00
9083;DHT22;4577;48.704;9.000;2024-03-23T17:25:22;7.10;1.00
9083;DHT22;4577;48.704;9.000;2024-03-23T17:27:48;7.00;1.00
9083;DHT22;4577;48.704;9.000;2024-03-23T17:35:10;7.20;1.00
9083;DHT22;4577;48.704;9.000;2024-03-23T17:37:37;7.00;1.00
9083;DHT22;4577;48.704;9.000;2024-03-23T17:42:32;4.70;99.90
9083;DHT22;4577;48.704;9.000;2024-03-23T17:47:24;4.30;99.90
9083;DHT22;4577;48.704;9.000;2024-03-23T17:54:41;4.80;99.90
9083;DHT22;4577;48.704;9.000;2024-03-23T17:57:07;5.00;99.90
9083;DHT22;4577;48.704;9.000;2024-03-23T17:59:33;5.30;99.90
9083;DHT22;4577;48.704;9.000;2024-03-23T18:16:37;5.60;99.90
9083;DHT22;4577;48.704;9.000;2024-03-23T18:19:03;6.00;57.90
9083;DHT22;4577;48.704;9.000;2024-03-23T18:21:30;5.80;57.30
9083;DHT22;4577;48.704;9.000;2024-03-23T18:26:22;6.10;54.70
9083;DHT22;4577;48.704;9.000;2024-03-23T18:28:51;6.50;76.50
9083;DHT22;4577;48.704;9.000;2024-03-23T18:36:11;5.60;59.60
9083;DHT22;4577;48.704;9.000;2024-03-23T18:38:37;6.10;89.50
9083;DHT22;4577;48.704;9.000;2024-03-23T18:41:03;5.50;1.00
9083;DHT22;4577;48.704;9.000;2024-03-23T18:53:13;6.10;6.00
9083;DHT22;4577;48.704;9.000;2024-03-23T18:55:40;6.10;1.00
9083;DHT22;4577;48.704;9.000;2024-03-23T19:03:00;6.50;1.00
9083;DHT22;4577;48.704;9.000;2024-03-23T19:05:26;7.00;23.80
9083;DHT22;4577;48.704;9.000;2024-03-23T19:10:18;6.30;1.00
9083;DHT22;4577;48.704;9.000;2024-03-23T19:12:47;6.30;29.50
9083;DHT22;4577;48.704;9.000;2024-03-23T19:15:13;6.50;24.30
9083;DHT22;4577;48.704;9.000;2024-03-23T19:17:39;6.40;22.10
9083;DHT22;4577;48.704;9.000;2024-03-23T19:20:05;6.10;1.00
9083;DHT22;4577;48.704;9.000;2024-03-23T19:24:58;6.20;1.00
9083;DHT22;4577;48.704;9.000;2024-03-23T19:27:28;6.20;1.00
9083;DHT22;4577;48.704;9.000;2024-03-23T19:29:53;6.10;2.20
9083;DHT22;4577;48.704;9.000;2024-03-23T19:32:19;5.90;27.80
9083;DHT22;4577;48.704;9.000;2024-03-23T19:34:45;6.00;1.00
9083;DHT22;4577;48.704;9.000;2024-03-23T19:39:37;6.00;1.00
9083;DHT22;4577;48.704;9.000;2024-03-23T19:47:00;6.30;16.70
9083;DHT22;4577;48.704;9.000;2024-03-23T19:49:25;5.50;17.60
9083;DHT22;4577;48.704;9.000;2024-03-23T19:54:18;5.70;30.20
9083;DHT22;4577;48.704;9.000;2024-03-23T20:11:25;6.00;1.00
9083;DHT22;4577;48.704;9.000;2024-03-23T20:13:51;5.70;1.00
9083;DHT22;4577;48.704;9.000;2024-03-23T20:16:17;5.70;1.00
9083;DHT22;4577;48.704;9.000;2024-03-23T20:21:09;5.80;13.00
9083;DHT22;4577;48.704;9.000;2024-03-23T20:28:27;6.10;27.10
9083;DHT22;4577;48.704;9.000;2024-03-23T20:31:00;5.70;1.00
9083;DHT22;4577;48.704;9.000;2024-03-23T20:33:26;5.80;29.20
9083;DHT22;4577;48.704;9.000;2024-03-23T20:38:19;6.00;13.20
9083;DHT22;4577;48.704;9.000;2024-03-23T20:40:46;5.70;39.10
9083;DHT22;4577;48.704;9.000;2024-03-23T21:00:19;5.50;36.10
9083;DHT22;4577;48.704;9.000;2024-03-23T21:02:45;5.60;16.90
9083;DHT22;4577;48.704;9.000;2024-03-23T21:07:37;5.70;1.00
9083;DHT22;4577;48.704;9.000;2024-03-23T21:14:56;5.90;21.30
9083;DHT22;4577;48.704;9.000;2024-03-23T21:19:47;5.60;3.10
9083;DHT22;4577;48.704;9.000;2024-03-23T21:22:13;5.60;7.30
9083;DHT22;4577;48.704;9.000;2024-03-23T21:24:39;5.90;1.00
9083;DHT22;4577;48.704;9.000;2024-03-23T21:27:05;5.80;1.00
9083;DHT22;4577;48.704;9.000;2024-03-23T21:29:32;5.90;1.00
9083;DHT22;4577;48.704;9.000;2024-03-23T21:31:57;5.50;1.00
9083;DHT22;4577;48.704;9.000;2024-03-23T21:34:23;5.60;1.00
9083;DHT22;4577;48.704;9.000;2024-03-23T21:36:50;5.60;1.00
9083;DHT22;4577;48.704;9.000;2024-03-23T21:39:15;5.70;9.20
9083;DHT22;4577;48.704;9.000;2024-03-23T21:41:43;6.00;12.40